sensor_id;sensor_type;location;lat;lon;timestamp;P1;P2;P0
53658;PMS5003;41524;35.624;139.698;2022-11-27T00:05:09;4.00;3.00;
53658;PMS5003;41524;35.624;139.698;2022-11-27T00:10:15;2.00;1.00;
53658;PMS5003;41524;35.624;139.698;2022-11-27T00:15:14;3.00;3.00;
53658;PMS5003;41524;35.624;139.698;2022-11-27T00:20:19;1.00;1.00;
53658;PMS5003;41524;35.624;139.698;2022-11-27T00:25:13;4.00;1.00;
53658;PMS5003;41524;35.624;139.698;2022-11-27T00:30:09;2.00;2.00;
53658;PMS5003;41524;35.624;139.698;2022-11-27T00:35:15;1.00;1.00;
53658;PMS5003;41524;35.624;139.698;2022-11-27T00:40:14;1.00;1.00;
53658;PMS5003;41524;35.624;139.698;2022-11-27T00:45:10;0.00;0.00;
53658;PMS5003;41524;35.624;139.698;2022-11-27T00:50:09;1.00;1.00;
53658;PMS5003;41524;35.624;139.698;2022-11-27T00:55:13;0.00;0.00;
53658;PMS5003;41524;35.624;139.698;2022-11-27T01:05:14;0.00;0.00;
53658;PMS5003;41524;35.624;139.698;2022-11-27T01:10:09;2.00;2.00;
53658;PMS5003;41524;35.624;139.698;2022-11-27T01:15:19;0.00;0.00;
53658;PMS5003;41524;35.624;139.698;2022-11-27T01:20:10;2.00;2.00;
53658;PMS5003;41524;35.624;139.698;2022-11-27T01:25:10;1.00;1.00;
53658;PMS5003;41524;35.624;139.698;2022-11-27T01:30:19;0.00;0.00;
53658;PMS5003;41524;35.624;139.698;2022-11-27T01:35:10;0.00;0.00;
53658;PMS5003;41524;35.624;139.698;2022-11-27T01:40:09;1.00;1.00;
53658;PMS5003;41524;35.624;139.698;2022-11-27T01:45:15;2.00;1.00;
53658;PMS5003;41524;35.624;139.698;2022-11-27T01:50:12;0.00;0.00;
53658;PMS5003;41524;35.624;139.698;2022-11-27T01:55:15;0.00;0.00;
53658;PMS5003;41524;35.624;139.698;2022-11-27T02:00:15;1.00;1.00;
53658;PMS5003;41524;35.624;139.698;2022-11-27T02:05:10;0.00;0.00;
53658;PMS5003;41524;35.624;139.698;2022-11-27T02:10:10;1.00;1.00;
53658;PMS5003;41524;35.624;139.698;2022-11-27T02:15:10;1.00;1.00;
53658;PMS5003;41524;35.624;139.698;2022-11-27T02:20:20;0.00;0.00;
53658;PMS5003;41524;35.624;139.698;2022-11-27T02:25:12;0.00;0.00;
53658;PMS5003;41524;35.624;139.698;2022-11-27T02:30:10;1.00;1.00;
53658;PMS5003;41524;35.624;139.698;2022-11-27T02:35:11;1.00;1.00;
53658;PMS5003;41524;35.624;139.698;2022-11-27T02:40:14;0.00;0.00;
53658;PMS5003;41524;35.624;139.698;2022-11-27T02:45:15;2.00;1.00;
53658;PMS5003;41524;35.624;139.698;2022-11-27T02:50:15;0.00;0.00;
53658;PMS5003;41524;35.624;139.698;2022-11-27T02:55:12;1.00;1.00;
53658;PMS5003;41524;35.624;139.698;2022-11-27T03:00:09;0.00;0.00;
53658;PMS5003;41524;35.624;139.698;2022-11-27T03:05:09;0.00;0.00;
53658;PMS5003;41524;35.624;139.698;2022-11-27T03:10:12;2.00;1.00;
53658;PMS5003;41524;35.624;139.698;2022-11-27T03:15:15;1.00;1.00;
53658;PMS5003;41524;35.624;139.698;2022-11-27T03:20:11;0.00;0.00;
53658;PMS5003;41524;35.624;139.698;2022-11-27T03:25:14;0.00;0.00;
53658;PMS5003;41524;35.624;139.698;2022-11-27T03:30:10;1.00;1.00;
53658;PMS5003;41524;35.624;139.698;2022-11-27T03:35:23;1.00;1.00;
53658;PMS5003;41524;35.624;139.698;2022-11-27T03:40:10;0.00;0.00;
53658;PMS5003;41524;35.624;139.698;2022-11-27T03:45:10;12.00;12.00;
53658;PMS5003;41524;35.624;139.698;2022-11-27T03:50:14;9.00;9.00;
53658;PMS5003;41524;35.624;139.698;2022-11-27T03:55:15;2.00;2.00;
53658;PMS5003;41524;35.624;139.698;2022-11-27T04:00:14;3.00;3.00;
53658;PMS5003;41524;35.624;139.698;2022-11-27T04:05:09;3.00;3.00;
53658;PMS5003;41524;35.624;139.698;2022-11-27T04:10:14;2.00;2.00;
53658;PMS5003;41524;35.624;139.698;2022-11-27T04:15:14;2.00;2.00;
53658;PMS5003;41524;35.624;139.698;2022-11-27T04:20:11;0.00;0.00;
53658;PMS5003;41524;35.624;139.698;2022-11-27T04:25:10;1.00;1.00;
53658;PMS5003;41524;35.624;139.698;2022-11-27T04:30:10;1.00;1.00;
53658;PMS5003;41524;35.624;139.698;2022-11-27T04:35:14;1.00;1.00;
53658;PMS5003;41524;35.624;139.698;2022-11-27T04:40:11;1.00;1.00;
53658;PMS5003;41524;35.624;139.698;2022-11-27T04:45:09;2.00;2.00;
53658;PMS5003;41524;35.624;139.698;2022-11-27T04:50:10;2.00;2.00;
53658;PMS5003;41524;35.624;139.698;2022-11-27T04:55:17;3.00;3.00;
53658;PMS5003;41524;35.624;139.698;2022-11-27T05:00:14;2.00;2.00;
53658;PMS5003;41524;35.624;139.698;2022-11-27T05:05:09;1.00;1.00;
53658;PMS5003;41524;35.624;139.698;2022-11-27T05:10:15;1.00;1.00;
53658;PMS5003;41524;35.624;139.698;2022-11-27T05:15:20;3.00;1.00;
53658;PMS5003;41524;35.624;139.698;2022-11-27T05:20:14;2.00;2.00;
53658;PMS5003;41524;35.624;139.698;2022-11-27T05:25:15;1.00;1.00;
53658;PMS5003;41524;35.624;139.698;2022-11-27T05:30:09;8.00;4.00;
53658;PMS5003;41524;35.624;139.698;2022-11-27T05:35:14;16.00;15.00;
53658;PMS5003;41524;35.624;139.698;2022-11-27T05:40:09;16.00;16.00;
53658;PMS5003;41524;35.624;139.698;2022-11-27T05:45:12;12.00;12.00;
53658;PMS5003;41524;35.624;139.698;2022-11-27T05:50:14;8.00;7.00;
53658;PMS5003;41524;35.624;139.698;2022-11-27T05:55:09;2.00;2.00;
53658;PMS5003;41524;35.624;139.698;2022-11-27T06:00:09;4.00;4.00;
53658;PMS5003;41524;35.624;139.698;2022-11-27T06:05:14;3.00;3.00;
53658;PMS5003;41524;35.624;139.698;2022-11-27T06:10:14;2.00;2.00;
53658;PMS5003;41524;35.624;139.698;2022-11-27T06:15:10;1.00;1.00;
53658;PMS5003;41524;35.624;139.698;2022-11-27T06:20:09;4.00;4.00;
53658;PMS5003;41524;35.624;139.698;2022-11-27T06:25:09;5.00;4.00;
53658;PMS5003;41524;35.624;139.698;2022-11-27T06:30:14;4.00;4.00;
53658;PMS5003;41524;35.624;139.698;2022-11-27T06:35:13;2.00;1.00;
53658;PMS5003;41524;35.624;139.698;2022-11-27T06:40:15;4.00;3.00;
53658;PMS5003;41524;35.624;139.698;2022-11-27T06:45:10;3.00;3.00;
53658;PMS5003;41524;35.624;139.698;2022-11-27T06:50:14;17.00;17.00;
53658;PMS5003;41524;35.624;139.698;2022-11-27T06:55:09;11.00;8.00;
53658;PMS5003;41524;35.624;139.698;2022-11-27T07:00:14;7.00;5.00;
53658;PMS5003;41524;35.624;139.698;2022-11-27T07:05:14;5.00;5.00;
53658;PMS5003;41524;35.624;139.698;2022-11-27T07:10:09;5.00;5.00;
53658;PMS5003;41524;35.624;139.698;2022-11-27T07:15:08;4.00;4.00;
53658;PMS5003;41524;35.624;139.698;2022-11-27T07:20:14;5.00;3.00;
53658;PMS5003;41524;35.624;139.698;2022-11-27T07:25:16;2.00;2.00;
53658;PMS5003;41524;35.624;139.698;2022-11-27T07:30:10;6.00;5.00;
53658;PMS5003;41524;35.624;139.698;2022-11-27T07:35:09;6.00;5.00;
53658;PMS5003;41524;35.624;139.698;2022-11-27T07:40:10;3.00;3.00;
53658;PMS5003;41524;35.624;139.698;2022-11-27T07:45:14;7.00;4.00;
53658;PMS5003;41524;35.624;139.698;2022-11-27T07:50:09;6.00;6.00;
53658;PMS5003;41524;35.624;139.698;2022-11-27T07:55:10;7.00;6.00;
53658;PMS5003;41524;35.624;139.698;2022-11-27T08:05:09;4.00;4.00;
53658;PMS5003;41524;35.624;139.698;2022-11-27T08:10:14;4.00;4.00;
53658;PMS5003;41524;35.624;139.698;2022-11-27T08:15:09;3.00;3.00;
53658;PMS5003;41524;35.624;139.698;2022-11-27T08:20:09;8.00;6.00;
53658;PMS5003;41524;35.624;139.698;2022-11-27T08:25:09;5.00;5.00;
53658;PMS5003;41524;35.624;139.698;2022-11-27T08:30:20;5.00;3.00;
53658;PMS5003;41524;35.624;139.698;2022-11-27T08:35:08;6.00;5.00;
53658;PMS5003;41524;35.624;139.698;2022-11-27T08:40:10;4.00;4.00;
53658;PMS5003;41524;35.624;139.698;2022-11-27T08:45:08;6.00;6.00;
53658;PMS5003;41524;35.624;139.698;2022-11-27T08:50:09;7.00;6.00;
53658;PMS5003;41524;35.624;139.698;2022-11-27T08:55:14;6.00;6.00;
53658;PMS5003;41524;35.624;139.698;2022-11-27T09:00:17;5.00;5.00;
53658;PMS5003;41524;35.624;139.698;2022-11-27T09:05:10;5.00;5.00;
53658;PMS5003;41524;35.624;139.698;2022-11-27T09:10:14;7.00;7.00;
53658;PMS5003;41524;35.624;139.698;2022-11-27T09:15:10;15.00;13.00;
53658;PMS5003;41524;35.624;139.698;2022-11-27T09:20:15;9.00;9.00;
53658;PMS5003;41524;35.624;139.698;2022-11-27T09:25:09;13.00;13.00;
53658;PMS5003;41524;35.624;139.698;2022-11-27T09:30:14;8.00;8.00;
53658;PMS5003;41524;35.624;139.698;2022-11-27T09:35:14;13.00;11.00;
53658;PMS5003;41524;35.624;139.698;2022-11-27T09:40:12;11.00;10.00;
53658;PMS5003;41524;35.624;139.698;2022-11-27T09:45:12;16.00;15.00;
53658;PMS5003;41524;35.624;139.698;2022-11-27T09:50:11;10.00;9.00;
53658;PMS5003;41524;35.624;139.698;2022-11-27T09:55:12;9.00;7.00;
53658;PMS5003;41524;35.624;139.698;2022-11-27T10:00:16;12.00;10.00;
53658;PMS5003;41524;35.624;139.698;2022-11-27T10:05:12;9.00;9.00;
53658;PMS5003;41524;35.624;139.698;2022-11-27T10:10:15;10.00;8.00;
53658;PMS5003;41524;35.624;139.698;2022-11-27T10:15:11;8.00;8.00;
53658;PMS5003;41524;35.624;139.698;2022-11-27T10:20:17;9.00;9.00;
53658;PMS5003;41524;35.624;139.698;2022-11-27T10:25:11;10.00;10.00;
53658;PMS5003;41524;35.624;139.698;2022-11-27T10:30:15;10.00;8.00;
53658;PMS5003;41524;35.624;139.698;2022-11-27T10:35:11;11.00;8.00;
53658;PMS5003;41524;35.624;139.698;2022-11-27T10:40:16;13.00;10.00;
53658;PMS5003;41524;35.624;139.698;2022-11-27T10:45:11;12.00;11.00;
53658;PMS5003;41524;35.624;139.698;2022-11-27T10:50:12;9.00;9.00;
53658;PMS5003;41524;35.624;139.698;2022-11-27T10:55:11;12.00;10.00;
53658;PMS5003;41524;35.624;139.698;2022-11-27T11:00:10;9.00;9.00;
53658;PMS5003;41524;35.624;139.698;2022-11-27T11:05:10;9.00;9.00;
53658;PMS5003;41524;35.624;139.698;2022-11-27T11:10:21;17.00;16.00;
53658;PMS5003;41524;35.624;139.698;2022-11-27T11:15:10;7.00;7.00;
53658;PMS5003;41524;35.624;139.698;2022-11-27T11:20:14;16.00;16.00;
53658;PMS5003;41524;35.624;139.698;2022-11-27T11:25:16;8.00;7.00;
53658;PMS5003;41524;35.624;139.698;2022-11-27T11:30:18;9.00;8.00;
53658;PMS5003;41524;35.624;139.698;2022-11-27T11:35:09;8.00;8.00;
53658;PMS5003;41524;35.624;139.698;2022-11-27T11:40:19;9.00;8.00;
53658;PMS5003;41524;35.624;139.698;2022-11-27T11:45:16;6.00;6.00;
53658;PMS5003;41524;35.624;139.698;2022-11-27T11:50:15;14.00;13.00;
53658;PMS5003;41524;35.624;139.698;2022-11-27T11:55:12;8.00;7.00;
53658;PMS5003;41524;35.624;139.698;2022-11-27T12:05:28;10.00;7.00;
53658;PMS5003;41524;35.624;139.698;2022-11-27T12:10:16;8.00;7.00;
53658;PMS5003;41524;35.624;139.698;2022-11-27T12:15:15;6.00;6.00;
53658;PMS5003;41524;35.624;139.698;2022-11-27T12:20:13;10.00;10.00;
53658;PMS5003;41524;35.624;139.698;2022-11-27T12:25:15;10.00;10.00;
53658;PMS5003;41524;35.624;139.698;2022-11-27T12:30:15;9.00;8.00;
53658;PMS5003;41524;35.624;139.698;2022-11-27T12:35:16;12.00;10.00;
53658;PMS5003;41524;35.624;139.698;2022-11-27T12:40:14;11.00;9.00;
53658;PMS5003;41524;35.624;139.698;2022-11-27T12:45:16;10.00;8.00;
53658;PMS5003;41524;35.624;139.698;2022-11-27T12:50:14;7.00;6.00;
53658;PMS5003;41524;35.624;139.698;2022-11-27T12:55:11;6.00;6.00;
53658;PMS5003;41524;35.624;139.698;2022-11-27T13:00:15;9.00;7.00;
53658;PMS5003;41524;35.624;139.698;2022-11-27T13:05:14;17.00;12.00;
53658;PMS5003;41524;35.624;139.698;2022-11-27T13:10:11;9.00;7.00;
53658;PMS5003;41524;35.624;139.698;2022-11-27T13:15:18;7.00;7.00;
53658;PMS5003;41524;35.624;139.698;2022-11-27T13:20:17;11.00;8.00;
53658;PMS5003;41524;35.624;139.698;2022-11-27T13:25:10;11.00;9.00;
53658;PMS5003;41524;35.624;139.698;2022-11-27T13:30:14;14.00;14.00;
53658;PMS5003;41524;35.624;139.698;2022-11-27T13:35:17;9.00;9.00;
53658;PMS5003;41524;35.624;139.698;2022-11-27T13:40:17;8.00;8.00;
53658;PMS5003;41524;35.624;139.698;2022-11-27T13:45:17;11.00;8.00;
53658;PMS5003;41524;35.624;139.698;2022-11-27T13:50:10;10.00;8.00;
53658;PMS5003;41524;35.624;139.698;2022-11-27T13:55:10;18.00;15.00;
53658;PMS5003;41524;35.624;139.698;2022-11-27T14:00:10;10.00;9.00;
53658;PMS5003;41524;35.624;139.698;2022-11-27T14:05:10;11.00;10.00;
53658;PMS5003;41524;35.624;139.698;2022-11-27T14:10:14;9.00;9.00;
53658;PMS5003;41524;35.624;139.698;2022-11-27T14:15:18;13.00;11.00;
53658;PMS5003;41524;35.624;139.698;2022-11-27T14:20:21;11.00;9.00;
53658;PMS5003;41524;35.624;139.698;2022-11-27T14:25:16;13.00;11.00;
53658;PMS5003;41524;35.624;139.698;2022-11-27T14:30:22;16.00;13.00;
53658;PMS5003;41524;35.624;139.698;2022-11-27T14:35:18;11.00;9.00;
53658;PMS5003;41524;35.624;139.698;2022-11-27T14:40:12;13.00;11.00;
53658;PMS5003;41524;35.624;139.698;2022-11-27T14:45:16;19.00;16.00;
53658;PMS5003;41524;35.624;139.698;2022-11-27T14:50:10;13.00;13.00;
53658;PMS5003;41524;35.624;139.698;2022-11-27T14:55:11;14.00;13.00;
53658;PMS5003;41524;35.624;139.698;2022-11-27T15:00:21;15.00;15.00;
53658;PMS5003;41524;35.624;139.698;2022-11-27T15:05:15;19.00;13.00;
53658;PMS5003;41524;35.624;139.698;2022-11-27T15:10:15;19.00;17.00;
53658;PMS5003;41524;35.624;139.698;2022-11-27T15:15:14;18.00;16.00;
53658;PMS5003;41524;35.624;139.698;2022-11-27T15:20:17;15.00;14.00;
53658;PMS5003;41524;35.624;139.698;2022-11-27T15:25:28;19.00;17.00;
53658;PMS5003;41524;35.624;139.698;2022-11-27T15:30:15;15.00;15.00;
53658;PMS5003;41524;35.624;139.698;2022-11-27T15:35:12;19.00;18.00;
53658;PMS5003;41524;35.624;139.698;2022-11-27T15:40:42;19.00;17.00;
53658;PMS5003;41524;35.624;139.698;2022-11-27T15:45:09;22.00;21.00;
53658;PMS5003;41524;35.624;139.698;2022-11-27T15:50:12;22.00;20.00;
53658;PMS5003;41524;35.624;139.698;2022-11-27T15:55:12;17.00;17.00;
53658;PMS5003;41524;35.624;139.698;2022-11-27T16:00:09;13.00;11.00;
53658;PMS5003;41524;35.624;139.698;2022-11-27T16:05:16;18.00;16.00;
53658;PMS5003;41524;35.624;139.698;2022-11-27T16:10:10;18.00;17.00;
53658;PMS5003;41524;35.624;139.698;2022-11-27T16:15:13;13.00;12.00;
53658;PMS5003;41524;35.624;139.698;2022-11-27T16:20:10;14.00;13.00;
53658;PMS5003;41524;35.624;139.698;2022-11-27T16:25:13;13.00;10.00;
53658;PMS5003;41524;35.624;139.698;2022-11-27T16:30:10;13.00;13.00;
53658;PMS5003;41524;35.624;139.698;2022-11-27T16:35:09;13.00;11.00;
53658;PMS5003;41524;35.624;139.698;2022-11-27T16:40:09;11.00;10.00;
53658;PMS5003;41524;35.624;139.698;2022-11-27T16:45:10;11.00;10.00;
53658;PMS5003;41524;35.624;139.698;2022-11-27T16:50:10;20.00;18.00;
53658;PMS5003;41524;35.624;139.698;2022-11-27T16:55:10;16.00;12.00;
53658;PMS5003;41524;35.624;139.698;2022-11-27T17:00:09;16.00;13.00;
53658;PMS5003;41524;35.624;139.698;2022-11-27T17:05:09;14.00;12.00;
53658;PMS5003;41524;35.624;139.698;2022-11-27T17:10:09;13.00;11.00;
53658;PMS5003;41524;35.624;139.698;2022-11-27T17:15:10;13.00;13.00;
53658;PMS5003;41524;35.624;139.698;2022-11-27T17:20:12;17.00;15.00;
53658;PMS5003;41524;35.624;139.698;2022-11-27T17:25:09;12.00;10.00;
53658;PMS5003;41524;35.624;139.698;2022-11-27T17:30:10;12.00;11.00;
53658;PMS5003;41524;35.624;139.698;2022-11-27T17:35:09;11.00;10.00;
53658;PMS5003;41524;35.624;139.698;2022-11-27T17:40:12;11.00;11.00;
53658;PMS5003;41524;35.624;139.698;2022-11-27T17:45:13;16.00;12.00;
53658;PMS5003;41524;35.624;139.698;2022-11-27T17:50:10;14.00;14.00;
53658;PMS5003;41524;35.624;139.698;2022-11-27T17:55:08;11.00;11.00;
53658;PMS5003;41524;35.624;139.698;2022-11-27T18:00:09;15.00;13.00;
53658;PMS5003;41524;35.624;139.698;2022-11-27T18:05:10;14.00;11.00;
53658;PMS5003;41524;35.624;139.698;2022-11-27T18:10:09;10.00;10.00;
53658;PMS5003;41524;35.624;139.698;2022-11-27T18:15:09;14.00;14.00;
53658;PMS5003;41524;35.624;139.698;2022-11-27T18:20:09;11.00;11.00;
53658;PMS5003;41524;35.624;139.698;2022-11-27T18:25:11;10.00;10.00;
53658;PMS5003;41524;35.624;139.698;2022-11-27T18:30:10;11.00;11.00;
53658;PMS5003;41524;35.624;139.698;2022-11-27T18:35:09;13.00;12.00;
53658;PMS5003;41524;35.624;139.698;2022-11-27T18:40:09;10.00;7.00;
53658;PMS5003;41524;35.624;139.698;2022-11-27T18:45:12;12.00;12.00;
53658;PMS5003;41524;35.624;139.698;2022-11-27T18:50:12;19.00;18.00;
53658;PMS5003;41524;35.624;139.698;2022-11-27T18:55:11;12.00;11.00;
53658;PMS5003;41524;35.624;139.698;2022-11-27T19:00:09;17.00;13.00;
53658;PMS5003;41524;35.624;139.698;2022-11-27T19:05:09;16.00;16.00;
53658;PMS5003;41524;35.624;139.698;2022-11-27T19:10:09;16.00;14.00;
53658;PMS5003;41524;35.624;139.698;2022-11-27T19:15:09;12.00;12.00;
53658;PMS5003;41524;35.624;139.698;2022-11-27T19:20:10;10.00;9.00;
53658;PMS5003;41524;35.624;139.698;2022-11-27T19:25:10;12.00;12.00;
53658;PMS5003;41524;35.624;139.698;2022-11-27T19:30:11;14.00;12.00;
53658;PMS5003;41524;35.624;139.698;2022-11-27T19:35:10;18.00;16.00;
53658;PMS5003;41524;35.624;139.698;2022-11-27T19:40:10;17.00;17.00;
53658;PMS5003;41524;35.624;139.698;2022-11-27T19:45:09;17.00;14.00;
53658;PMS5003;41524;35.624;139.698;2022-11-27T19:50:10;10.00;10.00;
53658;PMS5003;41524;35.624;139.698;2022-11-27T19:55:10;11.00;10.00;
53658;PMS5003;41524;35.624;139.698;2022-11-27T20:00:14;16.00;15.00;
53658;PMS5003;41524;35.624;139.698;2022-11-27T20:05:14;22.00;18.00;
53658;PMS5003;41524;35.624;139.698;2022-11-27T20:10:10;14.00;13.00;
53658;PMS5003;41524;35.624;139.698;2022-11-27T20:15:13;19.00;17.00;
53658;PMS5003;41524;35.624;139.698;2022-11-27T20:20:13;13.00;13.00;
53658;PMS5003;41524;35.624;139.698;2022-11-27T20:25:08;11.00;11.00;
53658;PMS5003;41524;35.624;139.698;2022-11-27T20:30:13;17.00;14.00;
53658;PMS5003;41524;35.624;139.698;2022-11-27T20:35:14;18.00;16.00;
53658;PMS5003;41524;35.624;139.698;2022-11-27T20:40:09;12.00;11.00;
53658;PMS5003;41524;35.624;139.698;2022-11-27T20:45:13;30.00;21.00;
53658;PMS5003;41524;35.624;139.698;2022-11-27T20:50:09;15.00;13.00;
53658;PMS5003;41524;35.624;139.698;2022-11-27T20:55:11;18.00;13.00;
53658;PMS5003;41524;35.624;139.698;2022-11-27T21:00:09;18.00;18.00;
53658;PMS5003;41524;35.624;139.698;2022-11-27T21:05:12;15.00;13.00;
53658;PMS5003;41524;35.624;139.698;2022-11-27T21:10:10;14.00;14.00;
53658;PMS5003;41524;35.624;139.698;2022-11-27T21:15:09;19.00;16.00;
53658;PMS5003;41524;35.624;139.698;2022-11-27T21:20:09;13.00;12.00;
53658;PMS5003;41524;35.624;139.698;2022-11-27T21:25:10;14.00;12.00;
53658;PMS5003;41524;35.624;139.698;2022-11-27T21:30:10;10.00;10.00;
53658;PMS5003;41524;35.624;139.698;2022-11-27T21:35:12;21.00;21.00;
53658;PMS5003;41524;35.624;139.698;2022-11-27T21:40:09;26.00;20.00;
53658;PMS5003;41524;35.624;139.698;2022-11-27T21:45:18;21.00;18.00;
53658;PMS5003;41524;35.624;139.698;2022-11-27T21:50:09;18.00;16.00;
53658;PMS5003;41524;35.624;139.698;2022-11-27T21:55:08;15.00;15.00;
53658;PMS5003;41524;35.624;139.698;2022-11-27T22:00:10;10.00;10.00;
53658;PMS5003;41524;35.624;139.698;2022-11-27T22:05:10;10.00;9.00;
53658;PMS5003;41524;35.624;139.698;2022-11-27T22:10:11;12.00;11.00;
53658;PMS5003;41524;35.624;139.698;2022-11-27T22:15:14;17.00;11.00;
53658;PMS5003;41524;35.624;139.698;2022-11-27T22:20:10;13.00;11.00;
53658;PMS5003;41524;35.624;139.698;2022-11-27T22:25:14;11.00;11.00;
53658;PMS5003;41524;35.624;139.698;2022-11-27T22:30:14;19.00;15.00;
53658;PMS5003;41524;35.624;139.698;2022-11-27T22:35:09;14.00;14.00;
53658;PMS5003;41524;35.624;139.698;2022-11-27T22:40:11;11.00;11.00;
53658;PMS5003;41524;35.624;139.698;2022-11-27T22:45:14;15.00;12.00;
53658;PMS5003;41524;35.624;139.698;2022-11-27T22:50:10;13.00;11.00;
53658;PMS5003;41524;35.624;139.698;2022-11-27T22:55:10;13.00;13.00;
53658;PMS5003;41524;35.624;139.698;2022-11-27T23:00:19;10.00;10.00;
53658;PMS5003;41524;35.624;139.698;2022-11-27T23:05:14;15.00;13.00;
53658;PMS5003;41524;35.624;139.698;2022-11-27T23:10:10;15.00;13.00;
53658;PMS5003;41524;35.624;139.698;2022-11-27T23:15:14;12.00;12.00;
53658;PMS5003;41524;35.624;139.698;2022-11-27T23:20:12;12.00;10.00;
53658;PMS5003;41524;35.624;139.698;2022-11-27T23:25:10;13.00;12.00;
53658;PMS5003;41524;35.624;139.698;2022-11-27T23:30:09;13.00;13.00;
53658;PMS5003;41524;35.624;139.698;2022-11-27T23:35:10;18.00;18.00;
53658;PMS5003;41524;35.624;139.698;2022-11-27T23:40:10;14.00;14.00;
53658;PMS5003;41524;35.624;139.698;2022-11-27T23:45:12;14.00;14.00;
53658;PMS5003;41524;35.624;139.698;2022-11-27T23:50:09;13.00;13.00;
53658;PMS5003;41524;35.624;139.698;2022-11-27T23:55:09;19.00;19.00;
